Time;durP1;ratioP1;P1;durP2;ratioP2;P2;SDS_P1;SDS_P2;PMS_P1;PMS_P2;Temp;Humidity;BMP_temperature;BMP_pressure;BME280_temperature;BME280_humidity;BME280_pressure;Samples;Min_cycle;Max_cycle;Signal;HPM_P1;HPM_P2
2022/06/24 00:02:57;;;;;;;10.50;7.40;;;;;;;13.54;100.00;99243.59;1642661;87;22573;-79
2022/06/24 00:06:04;;;;;;;11.33;7.65;;;;;;;13.48;100.00;99245.02;1673750;85;21221;-78
2022/06/24 00:09:09;;;;;;;8.40;6.20;;;;;;;13.48;100.00;99245.02;1674099;85;21228;-78
2022/06/24 00:12:25;;;;;;;10.20;7.00;;;;;;;13.47;100.00;99245.55;1672587;85;21240;-79
2022/06/24 00:15:40;;;;;;;11.80;7.50;;;;;;;13.43;100.00;99242.94;1657198;86;21290;-79
2022/06/24 00:18:46;;;;;;;17.10;7.62;;;;;;;13.40;100.00;99237.03;1675119;85;21214;-79
2022/06/24 00:22:12;;;;;;;12.58;7.47;;;;;;;13.38;100.00;99239.17;1674461;85;21285;-78
2022/06/24 00:25:23;;;;;;;9.83;7.45;;;;;;;13.34;100.00;99236.02;1674837;85;21214;-79
2022/06/24 00:28:37;;;;;;;10.75;7.97;;;;;;;13.31;100.00;99228.20;1680297;84;21499;-78
2022/06/24 00:31:42;;;;;;;7.22;6.35;;;;;;;13.29;100.00;99230.34;1701919;84;21215;-78
2022/06/24 00:34:48;;;;;;;8.75;6.55;;;;;;;13.27;100.00;99237.98;1703310;84;21311;-78
2022/06/24 00:37:56;;;;;;;8.63;6.90;;;;;;;13.25;100.00;99243.66;1703136;84;21241;-79
2022/06/24 00:41:14;;;;;;;9.90;7.37;;;;;;;13.24;100.00;99240.62;1703227;84;21788;-79
2022/06/24 00:44:20;;;;;;;6.97;6.25;;;;;;;13.24;100.00;99246.64;1711300;83;21197;-78
2022/06/24 00:47:26;;;;;;;9.28;6.50;;;;;;;13.21;100.00;99242.38;1716653;83;22509;-78
2022/06/24 00:50:36;;;;;;;10.55;6.15;;;;;;;13.19;100.00;99239.56;1718157;83;21194;-78
2022/06/24 00:53:51;;;;;;;8.68;5.67;;;;;;;13.19;100.00;99240.41;1718411;83;21248;-80
2022/06/24 00:57:02;;;;;;;11.70;6.70;;;;;;;13.17;100.00;99241.67;1719593;83;21162;-79
2022/06/24 01:00:08;;;;;;;6.72;5.95;;;;;;;13.13;100.00;99234.95;1681427;83;21217;-79
2022/06/24 01:03:15;;;;;;;7.92;5.60;;;;;;;13.12;100.00;99233.25;1675539;85;21256;-80
2022/06/24 01:06:21;;;;;;;8.43;5.33;;;;;;;13.12;100.00;99232.72;1675240;85;21771;-79
2022/06/24 01:09:26;;;;;;;6.60;5.80;;;;;;;13.14;100.00;99232.52;1675255;84;21245;-79
2022/06/24 01:12:32;;;;;;;8.65;5.72;;;;;;;13.14;100.00;99231.14;1674892;85;21217;-79
2022/06/24 01:15:38;;;;;;;7.58;5.87;;;;;;;13.18;100.00;99226.91;1674381;85;22193;-79
2022/06/24 01:18:43;;;;;;;10.43;5.92;;;;;;;13.22;100.00;99230.90;1675848;85;21205;-79
2022/06/24 01:21:50;;;;;;;7.72;6.50;;;;;;;13.29;100.00;99232.56;1674945;85;22344;-80
2022/06/24 01:24:55;;;;;;;6.42;5.12;;;;;;;13.38;100.00;99235.05;1675116;85;21245;-80
2022/06/24 01:28:00;;;;;;;8.13;6.20;;;;;;;13.39;100.00;99240.31;1674286;85;21229;-80
2022/06/24 01:31:06;;;;;;;11.53;8.00;;;;;;;13.43;100.00;99242.09;1675657;85;21197;-79
2022/06/24 01:34:12;;;;;;;7.80;6.92;;;;;;;13.44;100.00;99250.11;1675766;85;21198;-80
2022/06/24 01:37:19;;;;;;;10.65;7.60;;;;;;;13.48;100.00;99247.23;1675919;85;21217;-79
2022/06/24 01:40:25;;;;;;;10.43;7.17;;;;;;;13.52;100.00;99250.39;1674680;85;21296;-78
2022/06/24 01:43:30;;;;;;;9.75;7.65;;;;;;;13.55;100.00;99254.92;1672704;85;21253;-79
2022/06/24 01:46:30;;;;;;;9.25;7.50;;;;;;;13.58;100.00;99257.73;1667738;86;21206;-79
2022/06/24 01:49:35;;;;;;;8.58;6.95;;;;;;;13.60;100.00;99250.64;1666259;86;21260;-79
2022/06/24 01:52:34;;;;;;;8.40;7.10;;;;;;;13.62;100.00;99255.39;1666329;86;21229;-79
2022/06/24 01:55:39;;;;;;;11.33;7.75;;;;;;;13.62;100.00;99258.14;1666513;86;21264;-79
2022/06/24 01:58:45;;;;;;;11.28;7.55;;;;;;;13.66;100.00;99262.13;1677787;84;21226;-79
2022/06/24 02:01:50;;;;;;;7.85;7.05;;;;;;;13.64;100.00;99263.71;1703671;84;21821;-79
2022/06/24 02:04:56;;;;;;;9.33;7.40;;;;;;;13.68;100.00;99263.58;1703765;84;21270;-79
2022/06/24 02:08:01;;;;;;;8.98;7.15;;;;;;;13.73;100.00;99272.53;1703716;84;21234;-79
2022/06/24 02:14:30;;;;;;;7.92;6.83;;;;;;;13.87;100.00;99266.41;1706639;84;21218;-79
2022/06/24 02:17:37;;;;;;;8.70;7.53;;;;;;;13.94;100.00;99265.31;1706532;84;21258;-79
2022/06/24 02:20:43;;;;;;;9.78;7.80;;;;;;;14.01;100.00;99270.20;1706740;84;21241;-79
2022/06/24 02:23:49;;;;;;;8.03;7.20;;;;;;;14.11;100.00;99273.83;1705322;84;21294;-79
2022/06/24 02:26:48;;;;;;;9.80;8.03;;;;;;;14.22;100.00;99266.77;1705430;84;21211;-79
2022/06/24 02:29:40;;;;;;;10.05;7.10;;;;;;;14.33;100.00;99261.89;1706402;84;21262;-79
2022/06/24 02:32:27;;;;;;;8.10;7.12;;;;;;;14.42;100.00;99253.66;1706562;84;21270;-79
2022/06/24 02:35:19;;;;;;;9.35;7.62;;;;;;;14.53;100.00;99260.35;1706771;84;21989;-80
2022/06/24 02:38:27;;;;;;;20.45;11.28;;;;;;;14.62;100.00;99255.40;1706885;84;21211;-79
2022/06/24 02:41:33;;;;;;;19.05;10.95;;;;;;;14.71;100.00;99252.66;1705290;84;21273;-79
2022/06/24 02:44:38;;;;;;;32.48;15.63;;;;;;;14.79;100.00;99247.69;1706677;84;21243;-79
2022/06/24 02:47:44;;;;;;;61.60;19.35;;;;;;;14.88;100.00;99248.77;1706615;84;21265;-79
2022/06/24 02:50:51;;;;;;;42.20;18.40;;;;;;;14.95;100.00;99247.59;1706735;84;21242;-79
2022/06/24 02:53:58;;;;;;;51.00;20.70;;;;;;;15.03;100.00;99243.16;1705733;84;21749;-79
2022/06/24 02:57:04;;;;;;;61.95;22.40;;;;;;;15.11;100.00;99243.93;1705189;84;21234;-79
2022/06/24 03:00:09;;;;;;;45.35;20.17;;;;;;;15.23;100.00;99233.80;1706661;84;21190;-79
2022/06/24 03:03:16;;;;;;;44.30;18.32;;;;;;;15.36;100.00;99238.29;1706069;84;21242;-80
2022/06/24 03:06:20;;;;;;;59.18;22.10;;;;;;;15.45;100.00;99240.48;1707056;84;21226;-79
2022/06/24 03:09:25;;;;;;;45.48;20.45;;;;;;;15.62;100.00;99235.67;1706659;84;21283;-79
2022/06/24 03:12:30;;;;;;;46.08;20.97;;;;;;;15.84;100.00;99234.09;1704419;84;21221;-79
2022/06/24 03:15:34;;;;;;;41.88;18.73;;;;;;;16.05;100.00;99241.81;1706633;84;21245;-79
2022/06/24 03:18:40;;;;;;;42.30;19.98;;;;;;;16.27;100.00;99238.45;1706502;84;21210;-79
2022/06/24 03:21:44;;;;;;;56.05;19.80;;;;;;;16.40;100.00;99228.56;1706408;84;21246;-79
2022/06/24 03:24:51;;;;;;;51.40;19.30;;;;;;;16.56;100.00;99233.37;1705440;84;21238;-79
2022/06/24 03:27:57;;;;;;;38.50;19.02;;;;;;;16.70;100.00;99233.95;1706624;84;21210;-79
2022/06/24 03:31:02;;;;;;;44.60;17.80;;;;;;;16.82;100.00;99236.17;1706552;84;21187;-79
2022/06/24 03:34:07;;;;;;;33.67;18.40;;;;;;;16.86;100.00;99239.30;1706133;84;21199;-79
2022/06/24 03:37:13;;;;;;;31.17;16.20;;;;;;;16.88;100.00;99240.42;1706511;84;21199;-80
2022/06/24 03:40:20;;;;;;;38.38;17.48;;;;;;;16.89;100.00;99242.09;1706613;84;22223;-80
2022/06/24 03:43:26;;;;;;;33.50;19.60;;;;;;;16.90;100.00;99241.88;1706307;84;21266;-80
2022/06/24 03:46:31;;;;;;;35.28;18.55;;;;;;;16.95;100.00;99246.13;1706663;84;21297;-80
2022/06/24 03:49:36;;;;;;;39.53;18.07;;;;;;;17.03;100.00;99242.98;1706598;84;21194;-80
2022/06/24 03:52:42;;;;;;;36.83;19.85;;;;;;;17.09;100.00;99235.64;1706754;84;21226;-80
2022/06/24 03:55:49;;;;;;;32.40;16.77;;;;;;;17.06;100.00;99238.33;1706826;84;21218;-79
2022/06/24 03:58:54;;;;;;;40.73;20.20;;;;;;;17.05;100.00;99235.83;1710254;83;21859;-80
2022/06/24 04:02:00;;;;;;;37.03;19.07;;;;;;;16.96;100.00;99245.03;1719115;83;21174;-80
2022/06/24 04:05:04;;;;;;;41.60;19.82;;;;;;;16.89;100.00;99244.34;1718086;83;21233;-80
2022/06/24 04:08:12;;;;;;;37.65;18.92;;;;;;;16.82;100.00;99249.14;1719193;83;21551;-79
2022/06/24 04:11:24;;;;;;;31.97;18.05;;;;;;;16.78;100.00;99257.06;1719066;83;21225;-79
2022/06/24 04:17:57;;;;;;;39.40;21.00;;;;;;;16.73;100.00;99265.23;1669592;85;21322;-79
2022/06/24 04:21:03;;;;;;;58.23;23.22;;;;;;;16.75;100.00;99266.36;1723448;82;21765;-78
2022/06/24 04:24:08;;;;;;;46.60;22.62;;;;;;;16.83;100.00;99275.67;1703651;84;21842;-79
2022/06/24 04:27:15;;;;;;;35.50;18.92;;;;;;;16.87;100.00;99276.87;1705123;82;21263;-79
2022/06/24 04:30:20;;;;;;;34.98;17.05;;;;;;;16.94;100.00;99272.06;1738329;82;21209;-78
2022/06/24 04:33:26;;;;;;;32.95;16.90;;;;;;;17.03;100.00;99284.42;1738553;82;21204;-79
2022/06/24 04:36:32;;;;;;;29.10;16.45;;;;;;;17.12;100.00;99286.23;1738373;82;21193;-79
2022/06/24 04:39:38;;;;;;;39.67;18.42;;;;;;;17.19;100.00;99284.73;1737192;82;21200;-78
2022/06/24 04:42:44;;;;;;;28.12;15.32;;;;;;;17.28;100.00;99284.66;1738520;82;21225;-78
2022/06/24 04:45:54;;;;;;;32.55;15.55;;;;;;;17.43;100.00;99291.87;1737656;82;21256;-78
2022/06/24 04:49:00;;;;;;;25.75;13.90;;;;;;;17.52;100.00;99290.39;1738812;82;21205;-78
2022/06/24 04:52:05;;;;;;;23.92;13.05;;;;;;;17.70;100.00;99289.36;1738714;82;21204;-78
2022/06/24 04:55:11;;;;;;;25.05;13.43;;;;;;;17.97;99.92;99291.52;1738592;82;21728;-79
2022/06/24 04:58:17;;;;;;;21.93;12.73;;;;;;;18.25;97.45;99290.63;1711440;82;21625;-80
2022/06/24 05:01:22;;;;;;;22.85;13.58;;;;;;;18.62;94.83;99286.80;1738584;82;21203;-79
2022/06/24 05:04:27;;;;;;;24.57;15.03;;;;;;;19.02;91.50;99283.83;1738447;82;21773;-79
2022/06/24 05:07:32;;;;;;;25.32;15.32;;;;;;;19.46;87.69;99276.89;1737837;82;21224;-79
2022/06/24 05:10:40;;;;;;;25.92;14.68;;;;;;;19.89;83.93;99280.16;1737870;82;21177;-79
2022/06/24 05:13:46;;;;;;;26.00;13.98;;;;;;;20.28;80.78;99279.11;1728219;82;21218;-79
2022/06/24 05:16:52;;;;;;;24.65;14.20;;;;;;;20.52;79.42;99283.81;1701670;84;21204;-79
2022/06/24 05:20:00;;;;;;;25.62;12.63;;;;;;;20.66;77.98;99281.69;1657690;86;21213;-79
2022/06/24 05:23:07;;;;;;;19.90;11.77;;;;;;;20.81;77.42;99287.06;1675318;85;21256;-79
2022/06/24 05:26:13;;;;;;;24.90;12.82;;;;;;;20.95;74.88;99286.04;1674059;85;21377;-79
2022/06/24 05:29:19;;;;;;;23.25;13.20;;;;;;;21.04;73.98;99288.03;1642310;87;21280;-79
2022/06/24 05:32:25;;;;;;;23.47;11.48;;;;;;;21.16;73.84;99276.13;1675492;85;21217;-80
2022/06/24 05:35:31;;;;;;;22.73;13.38;;;;;;;21.26;73.13;99273.94;1701744;84;21191;-80
2022/06/24 05:38:39;;;;;;;21.52;12.43;;;;;;;21.26;72.87;99271.16;1694623;84;21201;-78
2022/06/24 05:41:47;;;;;;;15.05;9.68;;;;;;;21.28;71.81;99272.30;1680731;84;21180;-79
2022/06/24 05:44:47;;;;;;;21.07;11.83;;;;;;;21.20;71.13;99284.77;1664766;85;21260;-79
2022/06/24 05:47:42;;;;;;;17.05;10.32;;;;;;;21.12;71.46;99286.67;1640497;87;21237;-79
2022/06/24 05:50:48;;;;;;;17.57;10.72;;;;;;;21.06;72.64;99295.54;1703225;84;21264;-79
2022/06/24 05:57:17;;;;;;;19.65;11.12;;;;;;;21.00;71.98;99291.06;1703312;84;21197;-79
2022/06/24 06:00:23;;;;;;;19.55;11.90;;;;;;;21.11;71.89;99298.91;1678587;84;21228;-80
2022/06/24 06:03:32;;;;;;;19.67;11.25;;;;;;;21.31;72.48;99289.29;1677756;85;21718;-79
2022/06/24 06:06:38;;;;;;;16.15;10.80;;;;;;;21.48;71.38;99296.61;1677063;85;21236;-79
2022/06/24 06:09:44;;;;;;;16.62;10.20;;;;;;;21.51;70.77;99307.20;1677999;85;21464;-79
2022/06/24 06:12:50;;;;;;;15.70;10.20;;;;;;;21.54;70.59;99299.68;1677543;85;21205;-79
2022/06/24 06:15:56;;;;;;;13.68;9.25;;;;;;;21.71;70.32;99298.91;1684298;84;21249;-79
2022/06/24 06:19:01;;;;;;;11.55;7.03;;;;;;;21.93;69.73;99292.57;1665685;86;21220;-79
2022/06/24 06:22:08;;;;;;;14.95;7.25;;;;;;;22.10;66.08;99292.86;1665493;86;21194;-79
2022/06/24 06:25:17;;;;;;;12.05;6.92;;;;;;;22.18;65.97;99284.83;1661538;86;21190;-79
2022/06/24 06:28:22;;;;;;;15.23;6.95;;;;;;;22.34;64.34;99286.22;1661944;86;21275;-79
2022/06/24 06:31:29;;;;;;;12.95;6.50;;;;;;;22.48;62.61;99293.47;1670119;86;21196;-79
2022/06/24 06:34:36;;;;;;;10.93;6.40;;;;;;;22.73;62.68;99288.45;1668440;86;21221;-79
2022/06/24 06:37:42;;;;;;;9.78;5.75;;;;;;;23.02;62.62;99292.32;1651694;86;21316;-79
2022/06/24 06:40:48;;;;;;;7.58;4.97;;;;;;;23.38;61.88;99290.25;1668502;86;21201;-79
2022/06/24 06:43:54;;;;;;;10.50;4.85;;;;;;;23.76;58.52;99284.22;1674146;85;21267;-79
2022/06/24 06:47:00;;;;;;;10.68;5.12;;;;;;;24.05;56.28;99292.16;1680412;85;21252;-79
2022/06/24 06:50:06;;;;;;;7.20;5.08;;;;;;;24.27;54.94;99289.47;1681246;85;21214;-79
2022/06/24 06:53:12;;;;;;;5.83;4.53;;;;;;;24.39;54.76;99300.58;1681054;85;21213;-79
2022/06/24 06:56:17;;;;;;;8.28;5.22;;;;;;;24.43;53.88;99296.66;1682334;85;21826;-79
2022/06/24 06:59:22;;;;;;;14.73;5.62;;;;;;;24.25;54.93;99296.75;1658521;85;21241;-78
2022/06/24 07:02:28;;;;;;;13.20;5.17;;;;;;;24.11;54.82;99292.37;1634629;87;21230;-78
2022/06/24 07:05:36;;;;;;;7.58;5.20;;;;;;;24.11;54.71;99299.37;1633441;87;21213;-79
2022/06/24 07:08:42;;;;;;;11.60;7.20;;;;;;;24.05;52.16;99294.12;1633276;87;21250;-79
2022/06/24 07:11:47;;;;;;;11.57;7.53;;;;;;;23.91;55.75;99289.73;1634311;87;21214;-79
2022/06/24 07:14:48;;;;;;;11.25;8.03;;;;;;;23.70;56.60;99292.63;1637136;87;21199;-79
2022/06/24 07:17:54;;;;;;;13.00;8.15;;;;;;;23.41;57.65;99301.39;1672740;85;21751;-79
2022/06/24 07:21:00;;;;;;;14.80;8.85;;;;;;;23.16;59.00;99294.78;1673185;85;21197;-79
2022/06/24 07:24:06;;;;;;;18.52;11.22;;;;;;;22.95;59.50;99298.73;1675557;85;22006;-78
2022/06/24 07:27:15;;;;;;;18.02;11.73;;;;;;;22.68;61.07;99302.66;1678848;85;21244;-78
2022/06/24 07:30:21;;;;;;;18.05;12.28;;;;;;;22.52;61.95;99300.98;1674326;85;21224;-78
2022/06/24 07:33:27;;;;;;;28.23;18.55;;;;;;;22.38;62.62;99304.89;1676855;85;21201;-79
2022/06/24 07:36:33;;;;;;;34.40;23.60;;;;;;;22.16;65.45;99301.00;1675709;85;21241;-78
2022/06/24 07:39:39;;;;;;;32.17;24.45;;;;;;;21.86;68.68;99303.12;1675430;85;21193;-78
2022/06/24 07:42:45;;;;;;;32.00;23.73;;;;;;;21.60;70.52;99302.78;1675268;85;21269;-79
2022/06/24 07:45:52;;;;;;;35.28;25.50;;;;;;;21.40;71.61;99303.52;1674661;85;21541;-79
2022/06/24 07:48:57;;;;;;;36.88;22.40;;;;;;;21.29;72.52;99304.56;1675555;85;21777;-79
2022/06/24 07:52:03;;;;;;;38.28;22.02;;;;;;;21.32;72.28;99305.45;1675121;85;21229;-80
2022/06/24 07:58:33;;;;;;;40.98;22.85;;;;;;;21.47;72.01;99287.42;1689921;84;21264;-78
2022/06/24 08:01:39;;;;;;;31.33;19.55;;;;;;;21.56;71.86;99281.62;1737838;82;21256;-79
2022/06/24 08:04:45;;;;;;;29.12;18.95;;;;;;;21.72;70.79;99287.22;1737200;82;21724;-79
2022/06/24 08:07:52;;;;;;;31.23;19.00;;;;;;;21.88;69.82;99279.20;1738227;82;21235;-79
2022/06/24 08:10:57;;;;;;;29.70;19.40;;;;;;;22.06;69.70;99275.03;1737916;82;21212;-79
2022/06/24 08:14:05;;;;;;;40.30;20.62;;;;;;;22.21;68.20;99275.09;1737665;82;21211;-79
2022/06/24 08:17:12;;;;;;;24.18;15.48;;;;;;;22.40;68.06;99275.38;1737369;81;21223;-79
2022/06/24 08:20:18;;;;;;;32.00;17.65;;;;;;;22.52;67.04;99280.66;1740559;82;21202;-79
2022/06/24 08:23:24;;;;;;;26.90;19.05;;;;;;;22.65;65.81;99273.12;1740129;82;21250;-79
2022/06/24 08:26:29;;;;;;;29.12;16.52;;;;;;;22.95;65.16;99275.03;1740218;82;21274;-79
2022/06/24 08:29:34;;;;;;;28.47;17.27;;;;;;;23.30;64.17;99255.13;1740325;82;21199;-79
2022/06/24 08:32:38;;;;;;;28.45;18.82;;;;;;;23.61;62.77;99260.81;1740634;82;21885;-79
2022/06/24 08:35:45;;;;;;;27.35;18.42;;;;;;;23.83;61.60;99261.02;1741149;82;21202;-79
2022/06/24 08:38:51;;;;;;;23.75;17.12;;;;;;;23.82;61.55;99248.19;1739897;82;21230;-79
2022/06/24 08:41:58;;;;;;;22.70;14.10;;;;;;;23.90;61.64;99232.19;1741092;82;21556;-79
2022/06/24 08:45:07;;;;;;;28.02;16.55;;;;;;;24.09;60.53;99233.73;1715020;82;21552;-79
2022/06/24 08:48:17;;;;;;;22.77;16.37;;;;;;;24.34;59.96;99242.48;1711214;83;21219;-79
2022/06/24 08:51:24;;;;;;;26.82;17.75;;;;;;;24.42;59.79;99244.69;1688379;83;21659;-79
2022/06/24 08:54:31;;;;;;;18.57;15.32;;;;;;;24.37;59.83;99246.09;1647176;87;21330;-79
2022/06/24 08:57:38;;;;;;;24.52;15.93;;;;;;;24.31;59.28;99245.28;1570080;88;21842;-79
2022/06/24 09:00:44;;;;;;;22.15;15.10;;;;;;;24.18;59.69;99246.81;1632317;88;21223;-79
2022/06/24 09:03:51;;;;;;;17.67;13.50;;;;;;;24.12;60.20;99243.77;1647792;87;21264;-79
2022/06/24 09:06:58;;;;;;;17.02;12.40;;;;;;;24.18;59.00;99239.83;1648754;87;21637;-79
2022/06/24 09:10:11;;;;;;;18.25;10.90;;;;;;;24.21;59.33;99227.21;1648409;87;21245;-79
2022/06/24 09:13:27;;;;;;;12.00;8.88;;;;;;;24.26;59.55;99224.94;1651696;85;21197;-79
2022/06/24 09:16:33;;;;;;;12.20;7.80;;;;;;;24.40;57.91;99227.36;1674158;85;21854;-79
2022/06/24 09:19:40;;;;;;;12.53;7.22;;;;;;;24.43;56.26;99222.02;1670918;83;21201;-79
2022/06/24 09:22:47;;;;;;;14.93;7.55;;;;;;;24.56;56.00;99221.05;1665938;86;21166;-79
2022/06/24 09:25:59;;;;;;;10.78;7.20;;;;;;;24.69;55.11;99219.79;1665467;86;21186;-79
2022/06/24 09:29:05;;;;;;;13.62;7.67;;;;;;;24.75;53.20;99213.61;1630727;87;21237;-79
2022/06/24 09:32:16;;;;;;;9.33;7.03;;;;;;;24.78;54.85;99221.95;1632074;88;21808;-78
2022/06/24 09:35:21;;;;;;;13.83;7.30;;;;;;;24.69;53.71;99197.99;1620392;87;21192;-79
2022/06/24 09:38:29;;;;;;;8.18;5.50;;;;;;;24.57;55.76;99206.80;1638991;87;21229;-78
2022/06/24 09:41:33;;;;;;;8.30;5.90;;;;;;;24.57;53.79;99205.97;1640429;87;21236;-79
2022/06/24 09:44:51;;;;;;;11.73;7.50;;;;;;;24.55;52.41;99206.81;1657615;86;21234;-78
2022/06/24 09:48:00;;;;;;;10.45;7.22;;;;;;;24.61;54.46;99207.05;1664665;86;21635;-79
2022/06/24 09:51:07;;;;;;;13.93;7.30;;;;;;;24.73;55.08;99212.48;1656531;86;21692;-78
2022/06/24 09:54:17;;;;;;;10.98;6.50;;;;;;;24.76;55.81;99221.42;1630084;87;21184;-78
2022/06/24 09:57:24;;;;;;;6.40;4.37;;;;;;;24.80;55.34;99228.09;1611031;89;21267;-79
2022/06/24 10:00:42;;;;;;;8.53;4.58;;;;;;;24.81;50.86;99230.59;1625562;87;21218;-79
2022/06/24 10:03:48;;;;;;;7.40;5.12;;;;;;;24.82;51.86;99234.21;1621188;88;21258;-79
2022/06/24 10:06:49;;;;;;;8.38;5.00;;;;;;;24.87;53.62;99222.97;1623266;88;21222;-78
2022/06/24 10:09:43;;;;;;;8.40;5.17;;;;;;;24.94;53.44;99232.69;1623354;88;21274;-79
2022/06/24 10:12:30;;;;;;;8.58;5.95;;;;;;;24.96;53.42;99231.80;1623779;88;21282;-78
2022/06/24 10:15:25;;;;;;;9.80;5.53;;;;;;;24.95;52.87;99228.75;1623517;88;21754;-78
2022/06/24 10:18:11;;;;;;;8.58;5.55;;;;;;;24.91;53.10;99223.48;1622984;88;21262;-78
2022/06/24 10:21:17;;;;;;;6.12;4.58;;;;;;;24.91;52.71;99233.27;1655542;86;22548;-78
2022/06/24 10:24:24;;;;;;;5.70;4.05;;;;;;;24.93;52.36;99216.17;1658503;86;21224;-78
2022/06/24 10:27:31;;;;;;;7.22;4.40;;;;;;;25.04;51.10;99211.31;1653705;86;21339;-78
2022/06/24 10:30:43;;;;;;;7.83;3.60;;;;;;;25.12;49.54;99224.66;1634616;86;21201;-78
2022/06/24 10:33:38;;;;;;;7.95;4.20;;;;;;;25.26;49.57;99210.20;1654111;86;21568;-78
2022/06/24 10:36:32;;;;;;;5.92;4.05;;;;;;;25.35;50.11;99217.38;1631925;86;21755;-78
2022/06/24 10:39:28;;;;;;;7.70;4.15;;;;;;;25.39;49.94;99222.64;1654742;86;21265;-77
2022/06/24 10:42:37;;;;;;;6.83;3.98;;;;;;;25.42;50.30;99216.45;1655272;86;21217;-77
2022/06/24 10:45:48;;;;;;;8.18;4.33;;;;;;;25.50;49.24;99217.16;1656755;86;21236;-79
2022/06/24 10:49:04;;;;;;;8.50;4.17;;;;;;;25.44;49.91;99226.77;1655548;86;21300;-79
2022/06/24 10:52:22;;;;;;;7.50;4.00;;;;;;;25.27;50.27;99212.47;1654552;87;21574;-78
2022/06/24 10:55:44;;;;;;;8.48;4.35;;;;;;;25.08;49.97;99213.25;1655776;87;21232;-78
2022/06/24 10:58:50;;;;;;;7.08;4.30;;;;;;;24.95;50.17;99212.53;1651985;87;21573;-79
2022/06/24 11:01:57;;;;;;;5.53;3.77;;;;;;;24.89;51.44;99217.89;1653204;87;21233;-79
2022/06/24 11:05:03;;;;;;;8.08;3.67;;;;;;;24.77;50.72;99219.72;1651805;87;21261;-79
2022/06/24 11:08:02;;;;;;;8.98;3.65;;;;;;;24.64;51.21;99228.23;1634238;87;21245;-79
2022/06/24 11:11:01;;;;;;;9.53;4.42;;;;;;;24.44;51.75;99227.88;1652183;87;21253;-79
2022/06/24 11:14:07;;;;;;;9.65;3.92;;;;;;;24.20;51.52;99225.55;1653021;87;21245;-79
2022/06/24 11:17:16;;;;;;;6.83;3.70;;;;;;;24.05;51.98;99222.89;1652908;87;21282;-79
2022/06/24 11:20:22;;;;;;;8.73;4.05;;;;;;;23.98;51.99;99234.38;1655107;85;21233;-79
2022/06/24 11:23:29;;;;;;;6.12;3.47;;;;;;;23.87;52.66;99228.60;1655077;85;21206;-78
2022/06/24 11:26:34;;;;;;;11.70;3.75;;;;;;;23.77;52.63;99228.67;1695959;84;21815;-79
2022/06/24 11:30:04;;;;;;;5.62;3.17;;;;;;;23.64;53.25;99230.97;1676465;85;21270;-79
2022/06/24 11:33:11;;;;;;;7.00;3.50;;;;;;;23.57;53.79;99213.70;1677635;85;21212;-79
2022/06/24 11:36:20;;;;;;;6.58;3.42;;;;;;;23.43;54.77;99205.66;1697410;84;21217;-79
2022/06/24 11:39:25;;;;;;;6.53;2.92;;;;;;;23.31;55.01;99212.98;1677655;85;21213;-78
2022/06/24 11:42:31;;;;;;;7.78;3.65;;;;;;;23.13;55.96;99210.28;1677494;85;21201;-79
2022/06/24 11:45:56;;;;;;;8.05;4.20;;;;;;;22.91;57.06;99213.45;1697462;84;21205;-79
2022/06/24 11:49:19;;;;;;;17.87;5.75;;;;;;;22.65;63.62;99216.82;1676563;85;21288;-79
2022/06/24 11:52:24;;;;;;;14.33;6.72;;;;;;;22.04;71.27;99230.77;1677664;85;21265;-79
2022/06/24 11:55:37;;;;;;;24.43;7.95;;;;;;;21.26;76.10;99235.56;1697460;84;21785;-80
2022/06/24 11:58:44;;;;;;;15.18;8.10;;;;;;;20.52;80.21;99244.37;1677276;85;21257;-80
2022/06/24 12:01:51;;;;;;;19.17;8.53;;;;;;;19.97;84.52;99245.55;1676889;85;21197;-80
2022/06/24 12:04:57;;;;;;;22.00;9.28;;;;;;;19.54;88.85;99247.86;1696664;84;21280;-81
2022/06/24 12:08:03;;;;;;;15.68;5.28;;;;;;;19.08;93.57;99260.62;1656819;85;21252;-82
2022/06/24 12:11:09;;;;;;;8.18;4.80;;;;;;;18.59;93.50;99275.70;1656315;85;21248;-80
2022/06/24 12:14:18;;;;;;;10.63;4.92;;;;;;;18.14;93.94;99268.33;1697375;84;21553;-79
2022/06/24 12:17:25;;;;;;;6.97;4.60;;;;;;;17.90;95.91;99260.43;1676248;85;21220;-79
2022/06/24 12:20:36;;;;;;;6.60;5.10;;;;;;;17.82;98.00;99260.28;1676660;85;21276;-78
2022/06/24 12:23:46;;;;;;;11.80;6.65;;;;;;;17.82;99.90;99257.52;1670098;86;21189;-78
2022/06/24 12:26:52;;;;;;;15.40;7.28;;;;;;;17.83;100.00;99258.67;1668949;86;21205;-78
2022/06/24 12:29:58;;;;;;;9.70;7.70;;;;;;;17.94;100.00;99258.30;1670022;86;21213;-78
2022/06/24 12:33:08;;;;;;;10.40;7.22;;;;;;;18.06;100.00;99274.81;1670028;86;21201;-79
2022/06/24 12:36:18;;;;;;;10.58;7.40;;;;;;;18.18;100.00;99261.75;1669066;86;21233;-79
2022/06/24 12:39:23;;;;;;;;;;;;;;;18.33;99.83;99250.08;1672600;86;21177;-80
2022/06/24 12:42:24;;;;;;;14.35;10.72;;;;;;;18.52;99.75;99257.58;1651258;86;20730;-80
2022/06/24 12:45:16;;;;;;;19.10;12.10;;;;;;;18.70;100.00;99250.95;1640230;87;21201;-80
2022/06/24 12:51:53;;;;;;;19.70;13.05;;;;;;;19.01;100.00;99255.83;1628195;87;21257;-80
2022/06/24 12:54:58;;;;;;;16.25;11.25;;;;;;;19.20;100.00;99263.83;1641449;87;21186;-80
2022/06/24 12:58:05;;;;;;;18.57;12.70;;;;;;;19.35;99.94;99264.01;1641237;87;21248;-80
2022/06/24 13:01:10;;;;;;;18.15;12.18;;;;;;;19.51;99.96;99273.33;1642878;87;21693;-80
2022/06/24 13:04:18;;;;;;;19.32;12.13;;;;;;;19.67;99.90;99273.84;1641587;87;21217;-80
2022/06/24 13:07:23;;;;;;;15.80;10.25;;;;;;;19.82;98.60;99295.36;1641564;87;21208;-79
2022/06/24 13:10:30;;;;;;;9.88;8.05;;;;;;;19.89;93.03;99291.80;1642939;87;21257;-79
2022/06/24 13:13:37;;;;;;;16.20;8.13;;;;;;;19.95;92.25;99290.78;1642934;87;21221;-79
2022/06/24 13:16:42;;;;;;;10.98;5.87;;;;;;;19.99;92.54;99283.58;1626339;88;21321;-80
2022/06/24 13:19:48;;;;;;;6.28;4.62;;;;;;;20.04;91.61;99285.05;1653504;86;21193;-79
2022/06/24 13:22:56;;;;;;;4.22;3.83;;;;;;;20.06;89.58;99288.38;1657129;86;21967;-79
2022/06/24 13:26:02;;;;;;;9.50;4.12;;;;;;;20.05;88.55;99284.48;1656123;86;21213;-80
2022/06/24 13:29:10;;;;;;;4.40;3.40;;;;;;;20.03;88.13;99282.51;1656186;86;21221;-79
2022/06/24 13:32:16;;;;;;;6.47;3.85;;;;;;;19.99;88.07;99293.29;1655713;86;21245;-79
2022/06/24 13:35:22;;;;;;;5.37;3.12;;;;;;;19.90;84.32;99301.28;1656339;86;21221;-79
2022/06/24 13:38:21;;;;;;;3.45;2.87;;;;;;;19.83;84.12;99302.58;1656299;86;21257;-79
2022/06/24 13:41:26;;;;;;;7.20;2.72;;;;;;;19.70;83.49;99289.95;1653385;87;21264;-78
2022/06/24 13:44:33;;;;;;;4.30;3.15;;;;;;;19.61;83.98;99284.02;1656308;86;21210;-78
2022/06/24 13:47:39;;;;;;;9.88;3.80;;;;;;;19.54;85.38;99268.11;1653523;87;21217;-78
2022/06/24 13:50:46;;;;;;;7.15;3.90;;;;;;;19.51;86.04;99261.69;1653349;87;21217;-78
2022/06/24 13:53:52;;;;;;;3.52;3.17;;;;;;;19.51;87.55;99254.75;1655007;86;21256;-78
2022/06/24 13:56:58;;;;;;;4.85;3.60;;;;;;;19.49;86.29;99245.87;1656151;86;21197;-79
2022/06/24 14:00:04;;;;;;;4.20;3.15;;;;;;;19.46;86.13;99250.54;1656184;86;21216;-79
2022/06/24 14:03:09;;;;;;;6.60;3.12;;;;;;;19.43;87.12;99259.37;1655558;86;21257;-79
2022/06/24 14:06:16;;;;;;;6.42;3.00;;;;;;;19.39;86.28;99262.40;1656113;86;21792;-79
2022/06/24 14:09:22;;;;;;;5.35;2.90;;;;;;;19.32;86.58;99253.42;1656257;86;21253;-79
2022/06/24 14:12:27;;;;;;;3.50;2.55;;;;;;;19.28;87.33;99266.96;1655914;86;21303;-78
2022/06/24 14:15:33;;;;;;;3.17;2.45;;;;;;;19.25;86.03;99269.44;1653430;87;21225;-79
2022/06/24 14:18:39;;;;;;;6.12;2.33;;;;;;;19.21;86.72;99271.88;1653317;87;21210;-79
2022/06/24 14:21:46;;;;;;;6.37;3.02;;;;;;;19.20;87.92;99263.83;1652913;87;21236;-79
2022/06/24 14:24:52;;;;;;;3.90;2.75;;;;;;;19.22;87.37;99271.33;1669012;85;21788;-79
2022/06/24 14:27:58;;;;;;;7.83;3.30;;;;;;;19.22;86.62;99287.41;1679285;85;21209;-79
2022/06/24 14:31:04;;;;;;;10.20;3.17;;;;;;;19.20;86.79;99291.55;1679322;85;21213;-79
2022/06/24 14:34:08;;;;;;;3.52;3.00;;;;;;;19.21;87.58;99307.08;1678364;85;21288;-79
2022/06/24 14:40:37;;;;;;;4.85;2.95;;;;;;;19.21;87.07;99323.71;1623556;88;21796;-79
2022/06/24 14:43:45;;;;;;;3.22;2.72;;;;;;;19.14;87.07;99319.17;1654595;86;21213;-78